CEST,Max TemperatureF,Mean TemperatureF,Min TemperatureF,Max Dew PointF,MeanDew PointF,Min DewpointF,Max Humidity, Mean Humidity, Min Humidity, Max Sea Level PressureIn, Mean Sea Level PressureIn, Min Sea Level PressureIn, Max VisibilityMiles, Mean VisibilityMiles, Min VisibilityMiles, Max Wind SpeedMPH, Mean Wind SpeedMPH, Max Gust SpeedMPH,PrecipitationIn, CloudCover, Events, WindDirDegrees
2013-8-1,84,70,56,59,57,54,94,66,31,30.15,30.11,30.02,19,7,6,9,4,,0.00,3,,170
2013-8-2,90,74,58,63,59,55,94,59,26,30.09,30.04,29.93,19,19,19,9,5,,0.00,,,118
2013-8-3,94,78,61,66,61,55,88,56,20,30.09,30.03,29.96,6,6,6,14,5,,0.00,1,Thunderstorm,306
2013-8-4,83,72,60,66,62,59,94,78,42,30.21,30.15,30.05,19,6,1,48,12,67,0.98,3,Rain-Thunderstorm,269
2013-8-5,79,67,55,66,61,55,100,81,57,30.18,30.13,30.00,9,6,2,9,5,,0.00,3,Fog,43
2013-8-6,88,74,60,68,63,59,100,71,36,30.06,30.00,29.86,7,5,1,39,7,51,0.55,3,Rain-Thunderstorm,90
2013-8-7,82,72,62,68,63,61,94,75,51,30.04,29.95,29.83,9,6,6,21,8,40,0.00,1,Rain-Thunderstorm,106
2013-8-8,82,72,63,66,64,59,88,72,48,30.06,29.95,29.83,19,8,6,13,6,,0.00,2,,328
2013-8-9,69,62,55,63,58,54,100,88,68,30.15,30.11,30.06,16,6,2,14,10,,0.01,5,Rain-Thunderstorm,343
2013-8-10,75,64,52,59,55,52,100,79,47,30.17,30.10,30.04,6,6,2,22,8,25,0.39,3,Rain,263
2013-8-11,72,62,52,59,53,48,94,74,46,30.09,30.07,30.04,19,8,6,17,7,,0.00,3,,277
2013-8-12,75,62,48,55,50,46,94,66,33,30.13,30.04,29.92,6,6,6,13,7,,0.00,1,,210
2013-8-13,69,61,53,55,50,45,88,65,40,30.12,30.02,29.92,6,6,6,18,10,32,0.00,3,Rain,274
2013-8-14,68,57,46,49,45,41,87,63,31,30.24,30.18,30.12,6,6,6,13,7,,0.00,3,,285
2013-8-15,78,62,45,48,42,36,87,56,24,30.30,30.24,30.20,6,6,6,8,5,,0.00,1,,212
2013-8-16,75,61,47,50,45,41,82,51,27,30.23,30.17,30.07,,,,9,5,,0.00,,,131
2013-8-17,82,66,49,52,49,43,82,51,26,30.09,30.04,29.97,,,,10,5,,0.00,,,171
2013-8-18,86,71,56,59,54,50,77,55,29,30.04,30.01,29.93,19,19,19,17,7,,0.00,,,230
2013-8-19,72,66,59,61,58,54,100,79,51,30.09,30.03,29.95,16,6,3,26,7,26,0.55,2,Rain,187
2013-8-20,65,58,51,57,52,48,94,82,59,30.36,30.25,30.09,12,6,6,14,10,,0.00,5,Rain,298
2013-8-21,68,58,47,52,47,43,100,69,32,30.38,30.31,30.24,19,8,6,9,6,,0.00,2,,334
2013-8-22,70,59,48,52,48,45,93,68,46,30.24,30.17,30.12,6,6,6,7,4,,0.00,3,,38
2013-8-23,70,58,47,54,50,46,94,69,42,30.14,30.10,30.05,6,6,4,14,5,,0.00,2,,68
2013-8-24,72,62,51,54,52,50,94,67,41,30.09,30.00,29.90,19,9,6,15,7,,0.00,1,,77
2013-8-25,61,58,54,55,53,50,100,86,72,29.95,29.90,29.88,16,5,2,17,9,,0.20,6,Rain,77
2013-8-26,61,58,55,55,54,50,100,89,68,30.01,29.97,29.92,6,4,2,15,9,,0.02,6,Rain,63
2013-8-27,60,57,54,54,51,48,94,79,63,30.01,29.99,29.97,19,8,6,12,7,,0.08,6,Rain,60
2013-8-28,65,59,53,55,53,50,100,79,51,30.12,30.01,29.95,19,6,4,10,5,,0.08,5,Rain,343
2013-8-29,73,60,48,54,49,45,94,67,33,30.18,30.16,30.12,16,8,6,15,6,,0.00,1,,276
2013-8-30,74,62,51,55,49,46,94,66,36,30.19,30.14,30.09,6,6,6,9,6,,0.00,3,,230
2013-8-31,76,66,55,55,52,50,82,64,34,30.12,30.08,30.04,19,8,6,16,10,22,0.00,2,Rain,250